Time;durP1;ratioP1;P1;durP2;ratioP2;P2;SDS_P1;SDS_P2;PMS_P1;PMS_P2;Temp;Humidity;BMP_temperature;BMP_pressure;BME280_temperature;BME280_humidity;BME280_pressure;Samples;Min_cycle;Max_cycle;Signal;HPM_P1;HPM_P2
2022/12/30 00:01:35;;;;;;;6.07;1.10;;;8.70;99.90;;;;;;5051996;28;20373;-68
2022/12/30 00:04:00;;;;;;;9.77;1.30;;;8.80;99.90;;;;;;5051575;28;20021;-68
2022/12/30 00:06:26;;;;;;;10.40;1.75;;;8.80;99.90;;;;;;5052006;28;20037;-68
2022/12/30 00:08:55;;;;;;;11.23;2.80;;;8.80;99.90;;;;;;5051704;28;20025;-68
2022/12/30 00:11:23;;;;;;;6.13;1.50;;;8.80;99.90;;;;;;5052362;28;20021;-68
2022/12/30 00:33:55;;;;;;;2.78;1.30;;;8.20;99.90;;;;;;5050763;28;20079;-68
2022/12/30 00:36:23;;;;;;;5.93;1.23;;;8.10;99.90;;;;;;5050594;28;20029;-68
2022/12/30 00:38:48;;;;;;;5.10;1.00;;;8.00;99.90;;;;;;5050526;28;20115;-68
2022/12/30 00:44:04;;;;;;;7.13;1.20;;;7.80;99.90;;;;;;5051173;28;20036;-68
2022/12/30 00:46:31;;;;;;;8.88;1.25;;;7.70;99.90;;;;;;5052328;28;20025;-68
2022/12/30 00:57:08;;;;;;;12.40;1.52;;;7.70;99.90;;;;;;5054566;28;20068;-68
2022/12/30 00:59:34;;;;;;;11.00;1.52;;;7.70;99.90;;;;;;5054714;28;20048;-68
2022/12/30 01:01:59;;;;;;;8.23;1.20;;;7.80;99.90;;;;;;5037252;28;20075;-68
2022/12/30 01:04:25;;;;;;;5.93;1.25;;;7.90;99.90;;;;;;5037296;28;20033;-68
2022/12/30 01:06:50;;;;;;;11.13;1.67;;;8.00;99.90;;;;;;5053942;28;20071;-68
2022/12/30 01:09:16;;;;;;;12.52;1.88;;;8.10;99.90;;;;;;5037130;28;20040;-68
2022/12/30 01:11:42;;;;;;;4.55;1.30;;;8.20;99.90;;;;;;5074622;28;20047;-68
2022/12/30 01:14:07;;;;;;;5.75;1.50;;;8.30;99.90;;;;;;5074630;28;20043;-68
2022/12/30 01:16:33;;;;;;;6.32;1.10;;;8.30;99.90;;;;;;5074563;28;20170;-68
2022/12/30 01:18:58;;;;;;;6.82;1.30;;;8.40;99.90;;;;;;5075900;28;20036;-68
2022/12/30 01:21:24;;;;;;;12.52;1.48;;;8.30;99.90;;;;;;5075611;28;20024;-68
2022/12/30 01:23:50;;;;;;;6.70;2.83;;;8.40;99.90;;;;;;5074378;28;20038;-68
2022/12/30 01:26:16;;;;;;;11.27;1.90;;;8.40;99.90;;;;;;5074422;28;20029;-68
2022/12/30 01:28:41;;;;;;;7.10;1.23;;;8.40;99.90;;;;;;5074419;28;20036;-68
2022/12/30 01:31:09;;;;;;;5.68;1.13;;;8.40;99.90;;;;;;5074695;28;20479;-68
2022/12/30 01:33:35;;;;;;;9.55;1.10;;;8.40;99.90;;;;;;5075519;28;20025;-68
2022/12/30 01:36:01;;;;;;;4.60;1.23;;;8.30;99.90;;;;;;5075489;28;20021;-68
2022/12/30 01:38:31;;;;;;;6.93;1.63;;;8.20;99.90;;;;;;5074043;28;20115;-68
2022/12/30 01:40:57;;;;;;;7.78;1.40;;;8.10;99.90;;;;;;5075613;28;20039;-68
2022/12/30 01:43:47;;;;;;;6.28;1.05;;;8.00;99.90;;;;;;5075367;28;20059;-68
2022/12/30 01:46:24;;;;;;;7.82;2.00;;;8.10;99.90;;;;;;5074984;28;20028;-68
2022/12/30 01:48:52;;;;;;;9.65;1.30;;;8.00;99.90;;;;;;5073761;28;20036;-68
2022/12/30 01:51:23;;;;;;;8.82;1.60;;;7.90;99.90;;;;;;5075479;28;20074;-68
2022/12/30 01:53:50;;;;;;;13.40;1.55;;;8.10;99.90;;;;;;5074679;28;20025;-68
2022/12/30 01:56:31;;;;;;;13.02;1.88;;;8.10;99.90;;;;;;5073881;28;20403;-68
2022/12/30 01:59:17;;;;;;;9.97;1.60;;;8.10;99.90;;;;;;5075187;28;20068;-68
2022/12/30 02:01:44;;;;;;;10.20;1.15;;;8.20;99.90;;;;;;5075195;28;20032;-68
2022/12/30 02:04:13;;;;;;;4.68;2.38;;;8.30;99.90;;;;;;5073950;28;20025;-68
2022/12/30 02:06:56;;;;;;;8.60;1.77;;;8.40;99.90;;;;;;5074833;28;20103;-68
2022/12/30 02:09:22;;;;;;;9.27;1.55;;;8.30;99.90;;;;;;5074957;28;20400;-68
2022/12/30 02:11:48;;;;;;;6.78;1.17;;;8.30;99.90;;;;;;5073780;28;20028;-68
2022/12/30 02:14:14;;;;;;;6.90;1.90;;;8.30;99.90;;;;;;5074675;28;20029;-68
2022/12/30 02:17:10;;;;;;;8.45;1.35;;;8.20;99.90;;;;;;5074647;28;20025;-68
2022/12/30 02:19:39;;;;;;;7.53;1.58;;;8.10;99.90;;;;;;5073231;28;20052;-67
2022/12/30 02:22:17;;;;;;;14.05;2.42;;;8.10;99.90;;;;;;5074801;28;20017;-67
2022/12/30 02:25:08;;;;;;;5.15;1.30;;;8.10;99.90;;;;;;5073321;28;20021;-67
2022/12/30 02:28:07;;;;;;;9.45;2.25;;;8.10;99.90;;;;;;5073668;28;20113;-67
2022/12/30 02:30:59;;;;;;;16.60;2.72;;;8.20;99.90;;;;;;5074381;28;20021;-67
2022/12/30 02:33:55;;;;;;;10.30;1.45;;;8.20;99.90;;;;;;5074659;28;20123;-67
2022/12/30 02:36:32;;;;;;;11.60;1.75;;;8.20;99.90;;;;;;5074161;28;20056;-67
2022/12/30 02:39:19;;;;;;;5.63;1.40;;;8.20;99.90;;;;;;5072884;28;20028;-67
2022/12/30 02:45:13;;;;;;;6.13;1.42;;;8.10;99.90;;;;;;5074426;28;20032;-67
2022/12/30 02:47:43;;;;;;;6.95;1.20;;;8.20;99.90;;;;;;5072763;28;20088;-67
2022/12/30 02:53:18;;;;;;;5.60;1.80;;;7.90;99.90;;;;;;5051927;28;20550;-67
2022/12/30 02:55:44;;;;;;;6.57;1.38;;;7.70;99.90;;;;;;5069831;28;20033;-67
2022/12/30 02:58:10;;;;;;;11.43;1.98;;;7.50;99.90;;;;;;5073704;28;20060;-67
2022/12/30 03:03:58;;;;;;;13.95;1.85;;;7.30;99.90;;;;;;5073755;28;20154;-67
2022/12/30 03:06:54;;;;;;;5.22;1.40;;;7.20;99.90;;;;;;5074177;28;20048;-67
2022/12/30 03:09:33;;;;;;;8.65;1.02;;;7.10;99.90;;;;;;5071433;28;20024;-68
2022/12/30 03:12:24;;;;;;;12.55;1.92;;;7.20;99.90;;;;;;5073911;28;20104;-68
2022/12/30 03:14:58;;;;;;;10.82;1.63;;;7.40;99.90;;;;;;5072560;28;20020;-68
2022/12/30 03:17:29;;;;;;;11.60;1.45;;;7.50;99.90;;;;;;5072287;28;20021;-68
2022/12/30 03:20:00;;;;;;;9.48;1.50;;;7.60;99.90;;;;;;5071984;28;20054;-68
2022/12/30 03:28:02;;;;;;;12.70;2.35;;;7.50;99.90;;;;;;5073691;28;20035;-68
2022/12/30 03:30:28;;;;;;;13.82;1.33;;;7.40;99.90;;;;;;5071943;28;20029;-68
2022/12/30 03:32:54;;;;;;;15.93;1.65;;;7.40;99.90;;;;;;5072772;28;20017;-68
2022/12/30 03:35:22;;;;;;;11.43;1.65;;;7.30;99.90;;;;;;5071872;28;20016;-68
2022/12/30 03:37:50;;;;;;;13.20;2.42;;;7.00;99.90;;;;;;5071872;28;20067;-68
2022/12/30 03:40:23;;;;;;;12.93;1.63;;;6.90;99.90;;;;;;5072141;28;20056;-68
2022/12/30 03:42:52;;;;;;;7.00;1.50;;;6.80;99.90;;;;;;5071854;28;20031;-68
2022/12/30 03:45:18;;;;;;;9.38;1.70;;;6.70;99.90;;;;;;5073130;28;20063;-68
2022/12/30 03:47:44;;;;;;;8.40;1.42;;;6.80;99.90;;;;;;5071817;28;20475;-67
2022/12/30 03:50:10;;;;;;;9.18;1.40;;;6.90;99.90;;;;;;5071612;28;20023;-67
2022/12/30 03:52:36;;;;;;;11.05;1.65;;;7.10;99.90;;;;;;5071789;28;20101;-67
2022/12/30 03:55:02;;;;;;;4.65;1.00;;;7.10;99.90;;;;;;5071746;28;20024;-67
2022/12/30 03:57:27;;;;;;;14.27;1.67;;;7.20;99.90;;;;;;5073086;28;20028;-67
2022/12/30 03:59:53;;;;;;;7.43;1.38;;;7.20;99.90;;;;;;5071655;28;20047;-67
2022/12/30 04:02:18;;;;;;;5.57;1.20;;;7.20;99.90;;;;;;5073496;28;20064;-67
2022/12/30 04:04:45;;;;;;;12.25;1.48;;;7.20;99.90;;;;;;5073203;28;20033;-67
2022/12/30 04:07:10;;;;;;;8.45;2.00;;;7.30;99.90;;;;;;5071553;28;20479;-67
2022/12/30 04:09:36;;;;;;;10.77;1.45;;;7.30;99.90;;;;;;5071556;28;20027;-67
2022/12/30 04:12:01;;;;;;;9.68;1.73;;;7.30;99.90;;;;;;5071826;28;20021;-67
2022/12/30 04:14:27;;;;;;;8.43;2.33;;;7.30;99.90;;;;;;5071569;28;20024;-67
2022/12/30 04:16:52;;;;;;;7.78;1.45;;;7.20;99.90;;;;;;5071912;28;20017;-67
2022/12/30 04:19:18;;;;;;;2.70;1.00;;;7.20;99.90;;;;;;5071232;28;20032;-67
2022/12/30 04:21:44;;;;;;;11.48;1.70;;;7.10;99.90;;;;;;5075376;28;20120;-67
2022/12/30 04:24:09;;;;;;;10.45;1.85;;;7.20;99.90;;;;;;5076625;28;20029;-67
2022/12/30 04:26:35;;;;;;;9.23;1.67;;;7.20;99.90;;;;;;5076595;28;20069;-67
2022/12/30 04:29:00;;;;;;;3.25;1.20;;;7.20;99.90;;;;;;5075246;28;20025;-67
2022/12/30 04:31:26;;;;;;;9.23;1.30;;;7.30;99.90;;;;;;5075435;28;20021;-67
2022/12/30 04:33:52;;;;;;;10.27;1.67;;;7.20;99.90;;;;;;5075677;28;20017;-67
2022/12/30 04:36:19;;;;;;;10.98;2.05;;;7.20;99.90;;;;;;5076113;28;20028;-67
2022/12/30 04:38:44;;;;;;;17.27;1.90;;;7.20;99.90;;;;;;5076409;28;20088;-67
2022/12/30 04:41:11;;;;;;;4.97;1.25;;;7.20;99.90;;;;;;5076299;28;20124;-67
2022/12/30 04:43:36;;;;;;;12.88;1.88;;;7.20;99.90;;;;;;5075124;28;20166;-67
2022/12/30 04:46:02;;;;;;;8.02;1.52;;;7.20;99.90;;;;;;5075132;28;20100;-67
2022/12/30 04:48:27;;;;;;;7.20;1.35;;;7.10;99.90;;;;;;5075135;28;20100;-67
2022/12/30 04:50:53;;;;;;;9.80;2.28;;;7.10;99.90;;;;;;5074920;28;20017;-67
2022/12/30 04:53:18;;;;;;;17.08;1.92;;;6.80;99.90;;;;;;5076195;28;20029;-67
2022/12/30 04:55:44;;;;;;;6.53;1.13;;;6.70;99.90;;;;;;5076364;28;20035;-67
2022/12/30 04:58:10;;;;;;;7.88;1.60;;;6.70;99.90;;;;;;5075075;28;20035;-67
2022/12/30 05:00:35;;;;;;;10.57;2.78;;;6.70;99.90;;;;;;5076144;28;20377;-68
2022/12/30 05:03:01;;;;;;;5.47;1.20;;;6.70;99.90;;;;;;5076112;28;20051;-68
2022/12/30 05:05:26;;;;;;;7.45;1.38;;;6.70;99.90;;;;;;5075916;28;20020;-68
2022/12/30 05:07:52;;;;;;;10.35;1.80;;;6.70;99.90;;;;;;5075724;28;20025;-68
2022/12/30 05:10:18;;;;;;;9.18;1.55;;;6.90;99.90;;;;;;5074598;28;20491;-68
2022/12/30 05:12:43;;;;;;;17.23;1.92;;;7.10;99.90;;;;;;5074985;28;20024;-68
2022/12/30 05:15:09;;;;;;;14.60;1.30;;;7.20;99.90;;;;;;5074693;28;20024;-68
2022/12/30 05:17:35;;;;;;;6.25;1.20;;;7.30;99.90;;;;;;5075809;28;20024;-68
2022/12/30 05:20:01;;;;;;;10.05;1.20;;;7.40;99.90;;;;;;5070816;22;20049;-68
2022/12/30 05:22:26;;;;;;;12.75;1.65;;;7.50;99.90;;;;;;5015479;28;20074;-68
2022/12/30 05:27:36;;;;;;;13.68;1.45;;;7.40;99.90;;;;;;5016263;28;20033;-68
2022/12/30 05:30:02;;;;;;;10.77;1.35;;;7.50;99.90;;;;;;5014720;28;20022;-68
2022/12/30 05:32:27;;;;;;;9.70;2.00;;;7.50;99.90;;;;;;5015069;28;20044;-68
2022/12/30 05:34:53;;;;;;;5.47;1.25;;;7.60;99.90;;;;;;5014616;28;20018;-68
2022/12/30 05:37:18;;;;;;;8.48;1.67;;;7.70;99.90;;;;;;5015080;28;20026;-68
2022/12/30 05:39:44;;;;;;;8.07;1.20;;;7.80;99.90;;;;;;5014818;28;20087;-69
2022/12/30 05:42:09;;;;;;;11.25;1.60;;;7.70;99.90;;;;;;5016005;28;20025;-68
2022/12/30 05:44:35;;;;;;;9.82;1.35;;;7.70;99.90;;;;;;5014416;28;20057;-68
2022/12/30 05:47:00;;;;;;;8.38;1.27;;;7.80;99.90;;;;;;5015624;28;20065;-68
2022/12/30 05:49:26;;;;;;;6.15;1.33;;;7.90;99.90;;;;;;5014158;28;20026;-68
2022/12/30 05:51:51;;;;;;;15.20;1.83;;;7.90;99.90;;;;;;5015260;28;20504;-68
2022/12/30 05:54:17;;;;;;;9.82;1.48;;;7.90;99.90;;;;;;5015967;28;20029;-68
2022/12/30 05:56:42;;;;;;;14.35;2.25;;;7.90;99.90;;;;;;5014266;28;20033;-68
2022/12/30 05:59:09;;;;;;;12.20;1.50;;;7.90;99.90;;;;;;5014898;28;20022;-68
2022/12/30 06:01:35;;;;;;;8.32;1.83;;;7.90;99.90;;;;;;5015455;28;20033;-68
2022/12/30 06:04:01;;;;;;;11.77;1.60;;;7.90;99.90;;;;;;5014422;28;20388;-68
2022/12/30 06:06:26;;;;;;;8.50;1.60;;;7.90;99.90;;;;;;5014149;28;20022;-68
2022/12/30 06:08:52;;;;;;;6.70;1.20;;;7.90;99.90;;;;;;5015105;28;20038;-68
2022/12/30 06:11:18;;;;;;;9.85;1.30;;;8.00;99.90;;;;;;5014572;28;20028;-68
2022/12/30 06:13:43;;;;;;;5.55;1.20;;;8.00;99.90;;;;;;5015455;28;20030;-68
2022/12/30 06:16:09;;;;;;;7.30;1.42;;;8.00;99.90;;;;;;5013861;28;20030;-68
2022/12/30 06:18:34;;;;;;;12.70;2.95;;;8.00;99.90;;;;;;5015067;28;20032;-68
2022/12/30 06:21:00;;;;;;;3.55;1.30;;;8.00;99.90;;;;;;5014169;28;20037;-68
2022/12/30 06:23:25;;;;;;;7.05;1.70;;;8.00;99.90;;;;;;5013689;28;20037;-68
2022/12/30 06:25:55;;;;;;;12.02;2.30;;;8.00;99.90;;;;;;5014749;28;20022;-68
2022/12/30 06:28:22;;;;;;;5.40;1.25;;;8.10;99.90;;;;;;5014931;28;20087;-68
2022/12/30 06:30:48;;;;;;;9.02;1.35;;;8.20;99.90;;;;;;5014869;28;20049;-68
2022/12/30 06:33:14;;;;;;;6.30;1.17;;;8.20;99.90;;;;;;5013569;28;20029;-68
2022/12/30 06:35:39;;;;;;;6.20;1.15;;;8.20;99.90;;;;;;5013437;28;20029;-68
2022/12/30 06:38:05;;;;;;;8.85;1.15;;;8.20;99.90;;;;;;5014697;28;20057;-68
2022/12/30 06:40:31;;;;;;;16.63;1.70;;;8.20;99.90;;;;;;5014515;28;20033;-68
2022/12/30 06:42:56;;;;;;;6.82;1.77;;;8.30;99.90;;;;;;5013808;28;20026;-68
2022/12/30 06:45:22;;;;;;;11.35;1.40;;;8.30;99.90;;;;;;5013296;28;20030;-68
2022/12/30 06:47:47;;;;;;;11.48;1.75;;;8.30;99.90;;;;;;5014474;28;20054;-68
2022/12/30 06:50:13;;;;;;;13.73;1.65;;;8.20;99.90;;;;;;5014332;28;20018;-68
2022/12/30 06:52:38;;;;;;;18.17;1.52;;;8.10;99.90;;;;;;5013233;28;20029;-68
2022/12/30 06:55:05;;;;;;;4.65;1.65;;;8.10;99.90;;;;;;5014457;28;20022;-68
2022/12/30 06:57:30;;;;;;;8.30;1.80;;;7.90;99.90;;;;;;5014392;28;20033;-68
2022/12/30 06:59:56;;;;;;;7.72;1.48;;;7.80;99.90;;;;;;5013070;28;20022;-68
2022/12/30 07:02:21;;;;;;;7.43;1.48;;;7.60;99.90;;;;;;5014765;28;20032;-68
2022/12/30 07:04:47;;;;;;;9.68;1.80;;;7.70;99.90;;;;;;5014220;28;20026;-68
2022/12/30 07:07:12;;;;;;;19.17;2.42;;;7.70;99.90;;;;;;5014085;28;20034;-68
2022/12/30 07:09:38;;;;;;;9.02;2.42;;;7.80;99.90;;;;;;5013137;28;20055;-68
2022/12/30 07:12:04;;;;;;;9.30;1.73;;;7.80;99.90;;;;;;5014180;28;20080;-68
2022/12/30 07:14:29;;;;;;;6.63;1.60;;;7.80;99.90;;;;;;5012799;28;20018;-68
2022/12/30 07:16:55;;;;;;;5.00;1.50;;;7.80;99.90;;;;;;5013075;28;20018;-68
2022/12/30 07:19:20;;;;;;;16.38;2.17;;;7.70;99.90;;;;;;5013245;28;20048;-68
2022/12/30 07:21:46;;;;;;;9.55;2.00;;;7.80;99.90;;;;;;5013115;28;20032;-68
2022/12/30 07:24:11;;;;;;;12.02;2.10;;;7.80;99.90;;;;;;5013949;28;20029;-68
2022/12/30 07:26:37;;;;;;;13.15;1.58;;;7.70;99.90;;;;;;5013970;28;20037;-68
2022/12/30 07:29:02;;;;;;;6.93;1.70;;;7.80;99.90;;;;;;5013729;28;20036;-68
2022/12/30 07:31:28;;;;;;;14.90;2.17;;;7.70;99.90;;;;;;5013903;28;20033;-68
2022/12/30 07:33:53;;;;;;;14.63;2.45;;;7.60;99.90;;;;;;5014169;28;20026;-68
2022/12/30 07:36:19;;;;;;;7.30;1.30;;;7.70;99.90;;;;;;5031613;28;20025;-68
2022/12/30 07:38:44;;;;;;;14.23;2.00;;;7.60;99.90;;;;;;5032323;28;20026;-68
2022/12/30 07:41:11;;;;;;;10.07;2.05;;;7.60;99.90;;;;;;5033379;28;20507;-67
2022/12/30 07:43:37;;;;;;;8.43;2.05;;;7.60;99.90;;;;;;5033959;28;20040;-68
2022/12/30 07:46:07;;;;;;;11.82;2.10;;;7.60;99.90;;;;;;5032109;28;20030;-68
2022/12/30 07:48:33;;;;;;;9.48;2.13;;;7.60;99.90;;;;;;5033677;28;20039;-68
2022/12/30 07:50:59;;;;;;;9.50;2.78;;;7.70;99.90;;;;;;5033187;28;20112;-68
2022/12/30 07:53:24;;;;;;;12.45;2.22;;;7.70;99.90;;;;;;5032378;28;20100;-68
2022/12/30 07:55:50;;;;;;;11.15;2.20;;;7.70;99.90;;;;;;5031666;28;20570;-68
2022/12/30 07:58:15;;;;;;;18.20;2.50;;;7.80;99.90;;;;;;5032164;28;20029;-68
2022/12/30 08:00:41;;;;;;;8.15;2.45;;;7.80;99.90;;;;;;5032331;28;20064;-68
2022/12/30 08:03:07;;;;;;;11.23;1.55;;;7.80;99.90;;;;;;5035611;28;20089;-68
2022/12/30 08:05:32;;;;;;;14.18;2.03;;;7.90;99.90;;;;;;5034580;28;20053;-68
2022/12/30 08:07:58;;;;;;;7.10;1.80;;;7.90;99.90;;;;;;5033687;28;20021;-68
2022/12/30 08:10:24;;;;;;;14.77;3.03;;;7.90;99.90;;;;;;5032166;28;20074;-68
2022/12/30 08:12:49;;;;;;;6.88;2.00;;;8.00;99.90;;;;;;5033427;28;20026;-68
2022/12/30 08:15:15;;;;;;;16.92;2.25;;;8.00;99.90;;;;;;5033774;28;20103;-68
2022/12/30 08:17:41;;;;;;;6.90;2.17;;;8.00;99.90;;;;;;5034649;28;20029;-68
2022/12/30 08:20:10;;;;;;;7.47;2.78;;;7.90;99.90;;;;;;5036483;28;20096;-68
2022/12/30 08:22:36;;;;;;;12.25;2.75;;;8.00;99.90;;;;;;5035458;28;20032;-68
2022/12/30 08:25:02;;;;;;;6.00;2.15;;;8.00;99.90;;;;;;5038813;28;20029;-68
2022/12/30 08:27:28;;;;;;;9.40;2.28;;;8.00;99.90;;;;;;5034358;28;20036;-68
2022/12/30 08:29:53;;;;;;;9.68;2.20;;;8.10;99.90;;;;;;5032462;28;20028;-68
2022/12/30 08:32:19;;;;;;;9.15;2.50;;;8.10;99.90;;;;;;5032851;28;20076;-68
2022/12/30 08:34:45;;;;;;;15.32;2.92;;;8.10;99.90;;;;;;5033742;28;20033;-68
2022/12/30 08:37:10;;;;;;;9.18;2.97;;;8.20;99.90;;;;;;5033161;28;20037;-68
2022/12/30 08:39:36;;;;;;;7.10;2.78;;;8.20;99.90;;;;;;5033699;28;20029;-68
2022/12/30 08:42:02;;;;;;;9.25;2.47;;;8.10;99.90;;;;;;5034138;28;20052;-68
2022/12/30 08:44:28;;;;;;;12.05;3.25;;;8.00;99.90;;;;;;5034354;28;20032;-68
2022/12/30 08:46:53;;;;;;;10.10;2.40;;;8.10;99.90;;;;;;5034748;28;20025;-68
2022/12/30 08:49:20;;;;;;;7.53;2.53;;;8.00;99.90;;;;;;5039713;28;20057;-68
2022/12/30 08:51:46;;;;;;;9.27;2.40;;;8.10;99.90;;;;;;5039755;28;20101;-68
2022/12/30 08:54:11;;;;;;;16.88;3.22;;;8.00;99.90;;;;;;5037930;28;20045;-68
2022/12/30 08:56:39;;;;;;;8.45;2.55;;;8.10;99.90;;;;;;5039335;28;20036;-68
2022/12/30 08:59:05;;;;;;;11.60;2.90;;;8.10;99.90;;;;;;5035491;28;20081;-68
2022/12/30 09:01:40;;;;;;;9.95;2.38;;;8.20;99.90;;;;;;5035386;28;20056;-68
2022/12/30 09:04:07;;;;;;;14.93;3.13;;;8.10;99.90;;;;;;5035176;28;20044;-68
2022/12/30 09:06:35;;;;;;;9.18;2.53;;;8.20;99.90;;;;;;5034274;28;20022;-68
2022/12/30 09:09:06;;;;;;;12.88;3.30;;;8.10;99.90;;;;;;5036613;28;20026;-68
2022/12/30 09:11:33;;;;;;;8.27;2.53;;;8.10;99.90;;;;;;5037064;28;20017;-68
2022/12/30 09:14:02;;;;;;;10.27;2.50;;;8.20;99.90;;;;;;5036355;28;20108;-69
2022/12/30 09:16:29;;;;;;;13.13;2.85;;;8.10;99.90;;;;;;5037733;28;20018;-68
2022/12/30 09:18:54;;;;;;;9.00;2.58;;;8.20;99.90;;;;;;5036814;28;20048;-68
2022/12/30 09:21:20;;;;;;;11.57;3.17;;;8.30;99.90;;;;;;5039779;28;20033;-68
2022/12/30 09:23:46;;;;;;;15.82;3.00;;;8.30;99.90;;;;;;5037928;28;20023;-68
2022/12/30 09:26:21;;;;;;;11.60;2.10;;;8.40;99.90;;;;;;5038685;28;20100;-69
2022/12/30 09:28:47;;;;;;;13.02;2.55;;;8.40;99.90;;;;;;5038915;28;20025;-69
2022/12/30 09:31:13;;;;;;;12.57;2.00;;;8.50;99.90;;;;;;5038339;28;20063;-68
2022/12/30 09:33:40;;;;;;;5.80;1.70;;;8.50;99.90;;;;;;5042038;28;20021;-68
2022/12/30 09:36:07;;;;;;;5.82;2.10;;;8.60;99.90;;;;;;5043088;28;20025;-68
2022/12/30 09:38:33;;;;;;;10.82;2.45;;;8.70;99.90;;;;;;5038899;28;20116;-68
2022/12/30 09:41:17;;;;;;;6.82;2.60;;;8.60;99.90;;;;;;5036752;28;20096;-67
2022/12/30 09:44:07;;;;;;;9.48;2.80;;;8.70;99.90;;;;;;5034923;28;20032;-67
2022/12/30 09:46:42;;;;;;;10.68;3.88;;;8.60;99.90;;;;;;5034664;28;20039;-67
2022/12/30 09:49:33;;;;;;;12.25;2.72;;;8.60;99.90;;;;;;5035645;28;20048;-67
2022/12/30 09:52:07;;;;;;;11.63;2.83;;;8.40;99.90;;;;;;5034246;28;20026;-67
2022/12/30 09:54:36;;;;;;;14.55;2.72;;;8.40;99.90;;;;;;5034122;28;20052;-67
2022/12/30 09:59:54;;;;;;;7.47;2.55;;;8.50;99.90;;;;;;5035524;28;20051;-68
2022/12/30 10:02:27;;;;;;;7.53;3.13;;;8.60;99.90;;;;;;5035132;28;20083;-68
2022/12/30 10:04:54;;;;;;;13.75;3.08;;;8.40;99.90;;;;;;5033974;28;20083;-68
2022/12/30 10:07:44;;;;;;;11.75;4.47;;;8.50;99.90;;;;;;5033727;28;20489;-68
2022/12/30 10:10:37;;;;;;;10.75;3.40;;;8.60;99.90;;;;;;5035476;28;20059;-68
2022/12/30 10:13:15;;;;;;;10.52;3.03;;;8.70;99.90;;;;;;5034913;28;20029;-68
2022/12/30 10:15:57;;;;;;;8.52;3.15;;;8.70;99.90;;;;;;5035743;28;20021;-67
2022/12/30 10:18:38;;;;;;;;;;;8.90;99.90;;;;;;5034819;28;20026;-67
2022/12/30 10:21:25;;;;;;;12.95;2.63;;;8.60;99.90;;;;;;5033537;28;19916;-67
2022/12/30 10:23:59;;;;;;;14.57;2.90;;;8.60;99.90;;;;;;5034051;28;20029;-67
2022/12/30 10:26:48;;;;;;;7.55;2.30;;;8.90;99.90;;;;;;5034701;28;20029;-67
2022/12/30 10:29:30;;;;;;;5.50;2.38;;;9.00;99.90;;;;;;5034572;28;20029;-68
2022/12/30 10:32:01;;;;;;;12.05;2.50;;;9.00;99.90;;;;;;5033397;28;20044;-67
2022/12/30 10:34:29;;;;;;;9.52;2.00;;;9.00;99.90;;;;;;5034474;28;20025;-67
2022/12/30 10:37:02;;;;;;;8.77;3.45;;;8.90;99.90;;;;;;5034537;28;20076;-67
2022/12/30 10:39:48;;;;;;;15.43;3.15;;;8.90;99.90;;;;;;5034786;28;20029;-68
2022/12/30 10:42:17;;;;;;;11.25;2.22;;;9.10;99.90;;;;;;5035333;28;20067;-68
2022/12/30 10:45:18;;;;;;;6.53;1.83;;;9.20;99.90;;;;;;5033410;28;20117;-68
2022/12/30 10:48:05;;;;;;;20.00;2.78;;;9.30;99.90;;;;;;5034250;28;20416;-68
2022/12/30 10:50:39;;;;;;;7.10;2.33;;;9.20;99.90;;;;;;5034532;28;20017;-68
2022/12/30 10:53:10;;;;;;;9.32;2.40;;;9.30;99.90;;;;;;5033640;28;20022;-68
2022/12/30 10:55:46;;;;;;;10.23;2.05;;;9.20;99.90;;;;;;5033062;28;20025;-68
2022/12/30 10:58:23;;;;;;;12.32;2.10;;;9.20;99.90;;;;;;5033691;28;20053;-67
2022/12/30 11:00:49;;;;;;;5.32;1.90;;;9.10;99.90;;;;;;5034402;28;20026;-67
2022/12/30 11:03:30;;;;;;;5.40;1.55;;;9.20;99.90;;;;;;5034047;28;20031;-67
2022/12/30 11:06:23;;;;;;;7.00;3.00;;;9.10;99.90;;;;;;5034218;28;20029;-68
2022/12/30 11:08:49;;;;;;;8.77;2.00;;;9.20;99.90;;;;;;5029173;28;20041;-68
2022/12/30 11:11:15;;;;;;;8.50;1.27;;;9.30;99.90;;;;;;5034164;28;20076;-68
2022/12/30 11:16:31;;;;;;;8.63;1.33;;;9.50;99.90;;;;;;5034623;28;20032;-68
2022/12/30 11:19:01;;;;;;;5.05;1.70;;;9.80;99.90;;;;;;5034237;28;20087;-69
2022/12/30 11:21:30;;;;;;;8.05;2.03;;;9.90;99.90;;;;;;5034013;28;20065;-68
2022/12/30 11:23:58;;;;;;;6.20;1.55;;;10.00;99.90;;;;;;5033345;28;20029;-68
2022/12/30 11:26:27;;;;;;;4.50;1.50;;;10.10;99.90;;;;;;5033398;28;20025;-68
2022/12/30 11:28:59;;;;;;;7.63;1.40;;;10.20;99.90;;;;;;5033731;28;20048;-68
2022/12/30 11:31:42;;;;;;;10.02;1.92;;;10.20;99.90;;;;;;5032348;28;20018;-68
2022/12/30 11:34:20;;;;;;;8.15;1.48;;;10.20;99.90;;;;;;5033795;28;20025;-68
2022/12/30 11:36:46;;;;;;;5.15;1.98;;;10.20;99.90;;;;;;5032430;28;20032;-68
2022/12/30 11:39:14;;;;;;;6.22;2.20;;;10.10;99.90;;;;;;5034116;28;20120;-68
2022/12/30 11:41:55;;;;;;;6.85;2.33;;;10.20;99.90;;;;;;5034445;28;20108;-68
2022/12/30 11:44:25;;;;;;;10.77;2.17;;;10.30;99.90;;;;;;5033448;28;20025;-68
2022/12/30 11:46:54;;;;;;;13.82;2.50;;;10.40;99.90;;;;;;5032817;28;20033;-68
2022/12/30 11:49:47;;;;;;;5.50;1.80;;;10.30;99.90;;;;;;5032338;28;20400;-68
2022/12/30 11:52:24;;;;;;;7.53;1.75;;;10.20;99.90;;;;;;5032902;28;20080;-68
2022/12/30 11:54:56;;;;;;;6.57;1.70;;;9.90;99.90;;;;;;5032262;28;20112;-68
2022/12/30 11:57:33;;;;;;;4.82;1.90;;;10.00;99.90;;;;;;5033047;28;20068;-68
2022/12/30 12:00:03;;;;;;;7.32;1.98;;;9.90;99.90;;;;;;5031996;28;20025;-68
2022/12/30 12:02:34;;;;;;;6.72;2.00;;;9.90;99.90;;;;;;5033260;28;20037;-68
2022/12/30 12:05:01;;;;;;;5.53;1.10;;;9.70;99.90;;;;;;5032374;28;20017;-69
2022/12/30 12:07:43;;;;;;;10.52;1.60;;;9.90;99.90;;;;;;5031956;28;20097;-68
2022/12/30 12:10:15;;;;;;;5.97;1.60;;;9.90;99.90;;;;;;5031863;28;20051;-68
2022/12/30 12:12:55;;;;;;;9.18;1.65;;;10.00;99.90;;;;;;5032753;28;20021;-68
2022/12/30 12:15:45;;;;;;;4.20;1.30;;;10.00;99.90;;;;;;5032027;28;20079;-68
2022/12/30 12:18:25;;;;;;;5.65;1.40;;;9.90;99.90;;;;;;5032402;28;20033;-68
2022/12/30 12:21:12;;;;;;;6.15;1.23;;;9.90;99.90;;;;;;5031860;28;20033;-68
2022/12/30 12:23:43;;;;;;;5.65;1.80;;;9.70;99.90;;;;;;5037430;28;20026;-68
2022/12/30 12:26:34;;;;;;;1.92;1.15;;;9.60;99.90;;;;;;5032904;28;20033;-68
2022/12/30 12:29:00;;;;;;;3.88;1.45;;;9.60;99.90;;;;;;5031843;28;20025;-68
2022/12/30 12:32:09;;;;;;;2.35;0.82;;;9.60;99.90;;;;;;5031881;28;20022;-68
2022/12/30 12:35:03;;;;;;;2.00;1.00;;;9.70;99.90;;;;;;5032874;28;20116;-67
2022/12/30 12:38:10;;;;;;;4.43;1.42;;;9.70;99.90;;;;;;5032638;28;20025;-68
2022/12/30 12:40:47;;;;;;;5.50;1.73;;;9.50;99.90;;;;;;5001697;28;20120;-68
2022/12/30 12:43:23;;;;;;;4.55;1.15;;;9.40;99.90;;;;;;5036722;28;20044;-68
2022/12/30 12:46:04;;;;;;;4.68;1.50;;;9.40;99.90;;;;;;5035289;28;20022;-68
2022/12/30 12:48:40;;;;;;;2.45;1.05;;;9.30;99.90;;;;;;5036804;28;20025;-67
2022/12/30 12:51:14;;;;;;;8.15;1.13;;;9.10;99.90;;;;;;5036543;28;20076;-68
2022/12/30 12:54:05;;;;;;;2.08;0.75;;;9.10;99.90;;;;;;5036773;28;20017;-68
2022/12/30 12:56:40;;;;;;;7.00;1.40;;;9.00;99.90;;;;;;5035171;28;20032;-67
2022/12/30 12:59:21;;;;;;;6.28;1.13;;;9.10;99.90;;;;;;5035163;28;20025;-68
2022/12/30 13:02:10;;;;;;;4.30;0.80;;;9.40;99.90;;;;;;5035460;28;20388;-68
2022/12/30 13:04:36;;;;;;;5.93;1.00;;;9.50;99.90;;;;;;5036876;28;20139;-68
2022/12/30 13:07:39;;;;;;;3.10;1.15;;;9.50;99.90;;;;;;5035343;28;20136;-69
2022/12/30 13:10:28;;;;;;;2.53;0.90;;;9.60;99.90;;;;;;5036434;28;20029;-68
2022/12/30 13:13:02;;;;;;;5.95;1.05;;;9.40;99.90;;;;;;5035210;28;20096;-67
2022/12/30 13:15:40;;;;;;;5.85;1.30;;;9.40;99.90;;;;;;5036391;28;20025;-67
2022/12/30 13:18:22;;;;;;;2.33;0.70;;;9.20;99.90;;;;;;5036531;28;20018;-68
2022/12/30 13:20:54;;;;;;;4.22;0.82;;;9.30;99.90;;;;;;5034748;28;20026;-68
2022/12/30 13:23:23;;;;;;;;;;;9.20;99.90;;;;;;5035435;28;20033;-68
2022/12/30 13:26:00;;;;;;;2.80;1.15;;;9.30;99.90;;;;;;5036221;28;19911;-68
2022/12/30 13:28:29;;;;;;;3.15;1.10;;;9.50;99.90;;;;;;5035860;28;20079;-68
2022/12/30 13:31:23;;;;;;;2.58;1.00;;;9.50;99.90;;;;;;5034464;28;20021;-68
2022/12/30 13:34:10;;;;;;;2.42;0.77;;;9.60;99.90;;;;;;5036285;28;20358;-68
2022/12/30 13:37:03;;;;;;;3.05;0.73;;;9.60;99.90;;;;;;5042361;28;20021;-67
2022/12/30 13:39:39;;;;;;;3.13;1.08;;;9.60;99.90;;;;;;5034392;28;20037;-68
2022/12/30 13:42:18;;;;;;;5.57;0.65;;;9.50;99.90;;;;;;5034257;28;20389;-68
2022/12/30 13:44:45;;;;;;;2.88;0.90;;;9.50;99.90;;;;;;5035172;28;20041;-67
2022/12/30 13:47:35;;;;;;;3.22;0.63;;;9.50;99.90;;;;;;5035532;28;20124;-67
2022/12/30 13:50:17;;;;;;;1.45;0.70;;;9.50;99.90;;;;;;5035108;28;20104;-67
2022/12/30 13:52:46;;;;;;;2.78;0.80;;;9.60;99.90;;;;;;5035018;28;20033;-67
2022/12/30 13:55:25;;;;;;;1.90;0.88;;;9.50;99.90;;;;;;5034407;28;20021;-67
2022/12/30 13:57:57;;;;;;;2.35;0.88;;;9.40;99.90;;;;;;5033947;28;20124;-67
2022/12/30 14:00:27;;;;;;;3.72;0.88;;;9.30;99.90;;;;;;5035302;28;20032;-68
2022/12/30 14:03:11;;;;;;;7.45;1.40;;;9.40;99.90;;;;;;5034133;28;20025;-67
2022/12/30 14:05:37;;;;;;;2.15;1.00;;;9.50;99.90;;;;;;5035413;28;20092;-67
2022/12/30 14:08:23;;;;;;;3.42;0.98;;;9.50;99.90;;;;;;5035056;28;20151;-68